Harlingen, TX

5:57 PM CST on February 19, 2018 (GMT -0600)
Valley International | | Change Station
Active Advisory: Wind Advisory

Elev 33 ft 26.23 °N, 97.65 °W | Updated 5 minutes ago

Clear
Clear
77 °F
Feels Like 77 °F
N
28
Wind Variable Wind from South
Gusts 40 mph

Today
High -- | Low -- °F
--% Chance of Precip.
Yesterday
High -- | Low -- °F
Precip. -- in
Pressure 29.83 in
Visibility 10.0 miles
Clouds Clear
Dew Point 69 °F
Humidity 76%
Rainfall 0.00 in
Snow Depth Not available.
7:02 AM 6:26 PM
Waxing Crescent, 17% visible
METAR KHRL 192352Z 17024G35KT 10SM CLR 25/21 A2983 RMK AO2 PK WND 16036/2330 SLP100 T02500206 10294 20250 53003
Pressure 29.83 in
Visibility 10.0 miles
Clouds Clear
Dew Point 69 °F
Humidity 76%
Rainfall 0.00 in
Snow Depth Not available.
7:02 AM 6:26 PM
Waxing Crescent, 17% visible
METAR KHRL 192352Z 17024G35KT 10SM CLR 25/21 A2983 RMK AO2 PK WND 16036/2330 SLP100 T02500206 10294 20250 53003

Get Your Daily Forecast Email!

Thanks for signing up!

Be on the lookout for a verification email in your inbox.

You'll start receiving severe weather alerts in your inbox..

×

10-Day Weather Forecast

Almanac

Astronomy

Feb. 19, 2018 Rise Set
Actual Time
Civil Twilight
Nautical Twilight
Astronomical Twilight
Moon
Length of Visible Light
Length of Day
Tomorrow will be .
, % of the Moon is Illuminated

Today's Extremes

State Highs State Lows

Community

WunderPhotos

Category 6

Welcome to Category 6. This is the collective home for Weather Underground's featured writeups by Dr. Jeff Masters (right), Bob Henson (left), Chris Burt, and other regular contributors.

Nearby

Air Quality

  Air Quality AQ Index Pollutant
Not available.

Snow Depth

Station Depth Elevation

Earthquake Activity

City Distance Mag. Time & Date
Minimum magnitude displayed is 2.5.

Coastal Water Temperatures

Place Temperature

Stations

Nearby Weather Stations

Station Location Temp. Windchill Dew Point Humidity Wind Precip. Elev Updated Type
                   

Watches & Warnings

Wind Advisory
Issued: 12:03 PM CST Feb. 19, 2018 – National Weather Service

... Wind Advisory remains in effect until 7 PM CST this evening...

* timing... now through sunset.

* Winds... southerly winds of 25 to 35 mph with higher gusts this
afternoon.

* Impacts... lightweight and unsecured objects will be easily
blown around and possibly damaged. Driving will be difficult,
especially high profile vehicles.

Precautionary/preparedness actions...

A Wind Advisory means that winds of 30 to 39 mph are expected.
Winds this strong can make driving difficult... especially for
high profile vehicles. Use extra caution.